Farmington Hills, Michigan
Current Conditions -  °F | °C
As of 2:55 AM on Friday 31 Oct 2014 (Local Time) from KVLL Reporting Station
Overcast Overcast  
Wind Chill: 44°   Ceiling: 4500
Heat Index: 47°   Visibility: 10mi
Dew Point: 35°   Wind: 6mph
Humidity: 64%   Direction: 200°SSW
Pressure: 29.97"   Gusts: NA
Location:  42.4647°N, 83.3764°W
Report Text: KVLL 310655Z AUTO 20005KT 10SM OVC045 08/02 A2997 RMK AO2 T00810016
Loading
Personal Weather Stations






























Interactive Weather Map
Tropical Storm Tracking
New forecast layout! Learn more

10-Day Weather Forecast

Advertisements
Track Severe Weather on mobile